Alabaster, MI

7:14 PM EST on February 01, 2015 (GMT -0500)
Tawas Bay Weather | Change Station
CLOSE
Current Station
Personal Weather Station
Location: East Tawas, MI
Elevation: 590 ft
Nearby Weather Stations
Active Advisory: Winter Weather Advisory

Elev 590 ft 44.28 °N, 83.48 °W | Updated 0 second ago

Snow
Snow
14.4 °F
Feels Like 5 °F
N
6.0
Wind Variable Wind from NW
Gusts 11.0 mph

Today
High -- | Low -- °F
--% Chance of Precip.
Yesterday
High -- | Low -- °F
Precip. -- in
7:52 AM 5:43 PM
Waxing Gibbous, 96% visible
Pressure 30.03 in
Visibility 4.0 miles
Clouds Scattered Clouds 2000 ft
Mostly Cloudy 3900 ft
Overcast 5500 ft
Windchill 5 °F
Dew Point 11 °F
Humidity 86%
Rainfall 0.00 in
Snow Depth Not available.
UV 0 out of 12
Pollen .10 out of 12
Air Quality Not available.
Flu Activity Not available.
METAR KOSC 012353Z AUTO 04018G23KT 4SM HZ SCT020 BKN039 OVC055 M10/M13 A3003 RMK AO2 T11011132

More Conditions Fewer Conditions

Pressure 30.03 in
Visibility 4.0 miles
Clouds Scattered Clouds 2000 ft
Mostly Cloudy 3900 ft
Overcast 5500 ft
Windchill 5 °F
Dew Point 11 °F
Humidity 86%
Rainfall 0.00 in
Snow Depth Not available.
UV 0 out of 12
Pollen .10 out of 12
Air Quality Not available.
Flu Activity Not available.
METAR KOSC 012353Z AUTO 04018G23KT 4SM HZ SCT020 BKN039 OVC055 M10/M13 A3003 RMK AO2 T11011132

More Conditions Fewer Conditions

Nowcast | as of 7:00 PM EST on February 1, 2015

Winter Weather Advisory in effect until 5 am EST Monday... At 8 PM...blowing snow. Snow. Temperature 12. Northeast winds 19 mph. Wind chill 6 below. At 10 PM...blowing snow. Snow. Temperature 11. Northeast winds 21 mph with gusts to 35 mph. Wind chill 8 below. At 12 am...blowing snow. Snow. Temperature 11. Northeast winds 21 mph with gusts to 35 mph. Wind chill 8 below. At 2 am...blowing snow. Snow. Temperature 10 above. Northeast winds 21 mph. Wind chill 10 below.

×

10-Day Weather Forecast

Almanac

Astronomy

Feb. 01, 2015 Rise Set
Actual Time
Civil Twilight
Nautical Twilight
Astronomical Twilight
Moon
Length of Visible Light
Length of Day
Tomorrow will be .
, % of the Moon is Illuminated

Today's Extremes

State Highs State Lows

Community

WunderPhotos

Upload Photos

1,792,619 photos uploaded!

WunderBlogs® & News

Nearby

Air Quality

  Air Quality AQ Index Pollutant
Not available.

Snow Depth

Station Depth Elevation

Earthquake Activity

City Distance Mag. Time & Date
Minimum magnitude displayed is 2.5.

Coastal Water Temperatures

Place Temperature

Nearby Weather Stations